createdAt,value
2023-06-09T00:02:05.480Z,65.10
2023-06-09T00:04:34.793Z,65.20
2023-06-09T00:07:05.860Z,65.30
2023-06-09T00:09:33.007Z,65.30
2023-06-09T00:12:00.614Z,65.40
2023-06-09T00:14:27.586Z,66.30
2023-06-09T00:16:54.519Z,65.50
2023-06-09T00:19:23.243Z,65.60
2023-06-09T00:21:52.836Z,65.70
2023-06-09T00:24:22.438Z,65.90
2023-06-09T00:26:50.629Z,65.80
2023-06-09T00:29:18.908Z,66.00
2023-06-09T00:31:47.231Z,66.00
2023-06-09T00:34:14.155Z,66.10
2023-06-09T00:36:41.401Z,66.10
2023-06-09T00:39:08.985Z,66.10
2023-06-09T00:41:40.212Z,66.30
2023-06-09T00:44:07.961Z,66.40
2023-06-09T00:46:36.057Z,66.50
2023-06-09T00:49:03.047Z,66.50
2023-06-09T00:51:31.002Z,66.50
2023-06-09T00:53:58.155Z,66.60
2023-06-09T00:56:25.684Z,66.60
2023-06-09T00:58:52.985Z,66.80
2023-06-09T01:01:20.041Z,66.90
2023-06-09T01:03:50.063Z,67.00
2023-06-09T01:06:41.060Z,67.10
2023-06-09T01:09:33.525Z,67.30
2023-06-09T01:12:32.253Z,67.40
2023-06-09T01:15:10.087Z,67.50
2023-06-09T01:17:39.603Z,67.50
2023-06-09T01:20:08.448Z,67.60
2023-06-09T01:22:52.488Z,67.70
2023-06-09T01:25:40.788Z,67.70
2023-06-09T01:28:13.205Z,67.90
2023-06-09T01:30:42.461Z,68.00
2023-06-09T01:33:16.411Z,68.00
2023-06-09T01:35:44.187Z,68.10
2023-06-09T01:38:12.105Z,68.10
2023-06-09T01:40:38.934Z,68.30
2023-06-09T01:43:07.178Z,68.50
2023-06-09T01:45:34.428Z,68.50
2023-06-09T01:48:07.788Z,68.60
2023-06-09T01:50:52.641Z,68.70
2023-06-09T01:53:28.012Z,68.80
2023-06-09T01:56:07.364Z,68.80
2023-06-09T01:58:44.952Z,68.90
2023-06-09T02:01:16.298Z,69.00
2023-06-09T02:03:45.345Z,69.00
2023-06-09T02:06:16.685Z,69.10
2023-06-09T02:08:44.669Z,69.10
2023-06-09T02:11:11.692Z,69.10
2023-06-09T02:13:38.912Z,69.10
2023-06-09T02:16:06.073Z,69.10
2023-06-09T02:18:33.323Z,69.10
2023-06-09T02:21:00.604Z,69.10
2023-06-09T02:23:27.640Z,69.10
2023-06-09T02:25:54.508Z,69.00
2023-06-09T02:28:21.280Z,69.10
2023-06-09T02:30:48.607Z,69.10
2023-06-09T02:33:19.669Z,69.00
2023-06-09T02:35:46.747Z,69.00
2023-06-09T02:38:13.624Z,69.00
2023-06-09T02:40:44.352Z,69.10
2023-06-09T02:43:11.117Z,69.00
2023-06-09T02:45:37.926Z,69.00
2023-06-09T02:48:05.130Z,69.00
2023-06-09T02:50:31.959Z,68.90
2023-06-09T02:52:58.831Z,68.90
2023-06-09T02:55:26.131Z,68.90
2023-06-09T02:57:52.881Z,68.90
2023-06-09T03:00:20.196Z,68.90
2023-06-09T03:05:14.360Z,68.80
2023-06-09T03:07:41.239Z,68.80
2023-06-09T03:10:08.566Z,69.60
2023-06-09T03:12:36.568Z,68.70
2023-06-09T03:15:03.684Z,68.70
2023-06-09T03:17:30.522Z,68.60
2023-06-09T03:19:57.428Z,68.60
2023-06-09T03:22:24.905Z,68.70
2023-06-09T03:24:52.584Z,68.60
2023-06-09T03:27:19.384Z,68.60
2023-06-09T03:29:46.441Z,68.60
2023-06-09T03:32:13.169Z,68.60
2023-06-09T03:34:42.149Z,68.60
2023-06-09T03:37:11.640Z,68.70
2023-06-09T03:39:38.399Z,68.80
2023-06-09T03:42:06.054Z,68.80
2023-06-09T03:44:32.855Z,68.80
2023-06-09T03:46:59.599Z,68.80
2023-06-09T03:49:26.430Z,68.90
2023-06-09T03:51:53.235Z,68.80
2023-06-09T03:54:20.033Z,69.00
2023-06-09T03:56:47.160Z,69.00
2023-06-09T03:59:13.969Z,69.10
2023-06-09T04:01:41.755Z,69.20
2023-06-09T04:04:08.676Z,69.20
2023-06-09T04:06:36.309Z,69.30
2023-06-09T04:09:05.091Z,69.30
2023-06-09T04:11:33.633Z,69.40
2023-06-09T04:14:00.489Z,69.50
2023-06-09T04:16:27.310Z,69.50
2023-06-09T04:18:54.675Z,69.70
2023-06-09T04:21:21.524Z,69.70
2023-06-09T04:23:48.310Z,70.80
2023-06-09T04:26:15.586Z,69.90
2023-06-09T04:28:43.169Z,70.10
2023-06-09T04:31:11.192Z,70.10
2023-06-09T04:33:38.160Z,70.20
2023-06-09T04:36:05.463Z,70.20
2023-06-09T04:38:35.820Z,70.30
2023-06-09T04:41:04.781Z,70.30
2023-06-09T04:43:33.847Z,70.70
2023-06-09T04:46:01.529Z,70.50
2023-06-09T04:48:31.408Z,70.60
2023-06-09T04:51:02.484Z,70.70
2023-06-09T04:53:30.228Z,70.80
2023-06-09T04:56:01.236Z,70.80
2023-06-09T04:58:29.819Z,70.80
2023-06-09T05:00:58.403Z,70.70
2023-06-09T05:03:26.246Z,70.80
2023-06-09T05:05:53.573Z,70.90
2023-06-09T05:08:22.105Z,71.00
2023-06-09T05:10:49.797Z,71.00
2023-06-09T05:13:16.568Z,71.00
2023-06-09T05:15:43.320Z,71.00
2023-06-09T05:18:10.093Z,71.20
2023-06-09T05:20:37.121Z,71.10
2023-06-09T05:23:04.020Z,71.20
2023-06-09T05:25:30.927Z,71.10
2023-06-09T05:27:57.754Z,71.20
2023-06-09T05:30:24.495Z,71.20
2023-06-09T05:32:51.339Z,71.20
2023-06-09T05:35:18.600Z,71.20
2023-06-09T05:37:52.881Z,71.20
2023-06-09T05:40:20.039Z,71.40
2023-06-09T05:42:47.329Z,71.30
2023-06-09T05:45:14.358Z,71.30
2023-06-09T05:47:41.177Z,71.40
2023-06-09T05:50:08.522Z,71.40
2023-06-09T05:52:35.440Z,71.30
2023-06-09T05:55:02.827Z,71.40
2023-06-09T05:57:31.371Z,71.30
2023-06-09T05:59:58.709Z,71.50
2023-06-09T06:02:26.212Z,71.60
2023-06-09T06:04:53.192Z,71.60
2023-06-09T06:07:23.095Z,71.60
2023-06-09T06:09:49.923Z,71.70
2023-06-09T06:12:16.762Z,71.70
2023-06-09T06:14:43.536Z,71.80
2023-06-09T06:17:10.511Z,71.70
2023-06-09T06:19:37.466Z,71.70
2023-06-09T06:22:04.836Z,71.70
2023-06-09T06:24:31.589Z,71.70
2023-06-09T06:26:58.423Z,71.70
2023-06-09T06:29:25.255Z,71.60
2023-06-09T06:31:52.797Z,71.50
2023-06-09T06:34:19.661Z,71.40
2023-06-09T06:36:46.430Z,71.30
2023-06-09T06:39:13.855Z,72.20
2023-06-09T06:41:41.223Z,71.20
2023-06-09T06:44:08.078Z,71.20
2023-06-09T06:46:34.967Z,71.20
2023-06-09T06:49:02.592Z,71.10
2023-06-09T06:51:29.739Z,71.00
2023-06-09T06:53:56.709Z,70.90
2023-06-09T06:56:23.612Z,70.80
2023-06-09T06:58:50.851Z,70.70
2023-06-09T07:01:18.609Z,70.60
2023-06-09T07:03:46.625Z,70.60
2023-06-09T07:06:13.640Z,70.40
2023-06-09T07:08:40.641Z,70.30
2023-06-09T07:11:07.540Z,70.30
2023-06-09T07:13:34.809Z,70.20
2023-06-09T07:16:02.240Z,70.00
2023-06-09T07:18:30.360Z,69.80
2023-06-09T07:20:57.235Z,70.40
2023-06-09T07:23:24.132Z,69.50
2023-06-09T07:25:50.961Z,69.30
2023-06-09T07:28:17.784Z,69.20
2023-06-09T07:30:44.684Z,69.00
2023-06-09T07:33:11.588Z,68.70
2023-06-09T07:35:38.684Z,68.60
2023-06-09T07:38:06.567Z,68.50
2023-06-09T07:40:33.470Z,68.30
2023-06-09T07:43:00.442Z,69.00
2023-06-09T07:45:27.317Z,68.00
2023-06-09T07:47:54.127Z,67.70
2023-06-09T07:50:21.012Z,67.40
2023-06-09T07:52:47.881Z,67.20
2023-06-09T07:55:16.054Z,67.00
2023-06-09T07:57:44.735Z,66.90
2023-06-09T08:00:14.906Z,66.80
2023-06-09T08:02:43.674Z,66.70
2023-06-09T08:05:11.185Z,66.50
2023-06-09T08:07:38.509Z,66.30
2023-06-09T08:10:07.176Z,65.90
2023-06-09T08:12:36.148Z,65.70
2023-06-09T08:15:02.947Z,65.40
2023-06-09T08:17:29.799Z,65.10
2023-06-09T08:19:56.761Z,65.00
2023-06-09T08:22:23.626Z,64.90
2023-06-09T08:24:50.428Z,64.60
2023-06-09T08:27:17.204Z,64.50
2023-06-09T08:29:44.029Z,64.40
2023-06-09T08:32:10.950Z,64.20
2023-06-09T08:34:37.718Z,64.10
2023-06-09T08:37:04.914Z,63.90
2023-06-09T08:39:31.925Z,63.60
2023-06-09T08:42:01.953Z,63.30
2023-06-09T08:44:30.919Z,63.10
2023-06-09T08:47:02.673Z,63.10
2023-06-09T08:49:30.565Z,62.80
2023-06-09T08:51:59.607Z,62.70
2023-06-09T08:54:27.178Z,62.50
2023-06-09T08:56:54.124Z,62.40
2023-06-09T08:59:23.101Z,62.10
2023-06-09T09:01:51.012Z,62.90
2023-06-09T09:04:18.347Z,61.80
2023-06-09T09:06:45.202Z,61.50
2023-06-09T09:09:12.087Z,61.10
2023-06-09T09:11:39.683Z,60.70
2023-06-09T09:14:11.078Z,60.60
2023-06-09T09:16:37.897Z,60.00
2023-06-09T09:19:05.588Z,60.00
2023-06-09T09:21:38.547Z,60.00
2023-06-09T09:24:07.368Z,60.00
2023-06-09T09:26:35.079Z,59.50
2023-06-09T09:29:08.326Z,59.20
2023-06-09T09:31:38.486Z,59.00
2023-06-09T09:34:05.429Z,58.70
2023-06-09T09:36:34.488Z,58.50
2023-06-09T09:39:07.002Z,58.20
2023-06-09T09:41:33.883Z,57.70
2023-06-09T09:44:00.766Z,57.30
2023-06-09T09:46:27.996Z,57.10
2023-06-09T09:48:57.557Z,56.60
2023-06-09T09:51:24.523Z,56.30
2023-06-09T09:53:51.876Z,56.10
2023-06-09T09:56:22.747Z,55.70
2023-06-09T09:58:53.324Z,54.40
2023-06-09T10:01:25.182Z,53.90
2023-06-09T10:03:54.851Z,53.90
2023-06-09T10:06:28.546Z,53.30
2023-06-09T10:08:56.942Z,53.10
2023-06-09T10:11:29.779Z,53.00
2023-06-09T10:13:56.656Z,52.50
2023-06-09T10:16:24.462Z,52.40
2023-06-09T10:18:52.637Z,52.10
2023-06-09T10:21:20.758Z,51.60
2023-06-09T10:23:48.704Z,51.20
2023-06-09T10:26:16.492Z,51.10
2023-06-09T10:28:43.263Z,50.80
2023-06-09T10:31:12.712Z,50.80
2023-06-09T10:33:44.666Z,50.60
2023-06-09T10:36:11.983Z,49.60
2023-06-09T10:38:44.126Z,49.30
2023-06-09T10:41:32.072Z,48.80
2023-06-09T10:44:17.675Z,48.70
2023-06-09T10:46:49.869Z,48.30
2023-06-09T10:49:39.079Z,47.90
2023-06-09T10:52:30.180Z,47.10
2023-06-09T10:55:16.756Z,46.60
2023-06-09T10:57:44.590Z,44.60
2023-06-09T11:00:16.978Z,44.90
2023-06-09T11:03:13.629Z,44.60
2023-06-09T11:05:45.707Z,44.30
2023-06-09T11:08:12.538Z,44.70
2023-06-09T11:10:39.597Z,44.80
2023-06-09T11:13:45.001Z,45.00
2023-06-09T11:16:11.796Z,44.30
2023-06-09T11:18:39.923Z,44.60
2023-06-09T11:21:17.322Z,44.00
2023-06-09T11:24:04.886Z,43.80
2023-06-09T11:26:33.962Z,43.80
2023-06-09T11:29:01.846Z,43.30
2023-06-09T11:31:28.895Z,44.70
2023-06-09T11:33:56.986Z,42.20
2023-06-09T11:36:26.682Z,41.70
2023-06-09T11:38:54.070Z,42.80
2023-06-09T11:41:23.218Z,42.10
2023-06-09T11:43:57.526Z,42.50
2023-06-09T11:46:25.004Z,42.40
2023-06-09T11:49:06.162Z,42.30
2023-06-09T11:52:07.566Z,41.30
2023-06-09T11:54:47.306Z,40.80
2023-06-09T11:57:15.217Z,40.50
2023-06-09T11:59:46.069Z,39.60
2023-06-09T12:02:14.611Z,39.80
2023-06-09T12:04:43.467Z,39.30
2023-06-09T12:07:14.623Z,39.00
2023-06-09T12:09:42.033Z,38.20
2023-06-09T12:12:09.694Z,37.80
2023-06-09T12:14:37.522Z,37.50
2023-06-09T12:17:04.878Z,38.50
2023-06-09T12:19:32.125Z,37.30
2023-06-09T12:21:58.944Z,37.40
2023-06-09T12:24:28.231Z,38.00
2023-06-09T12:26:56.273Z,36.80
2023-06-09T12:29:27.582Z,37.00
2023-06-09T12:31:54.395Z,36.70
2023-06-09T12:34:30.412Z,36.40
2023-06-09T12:36:58.315Z,36.40
2023-06-09T12:39:30.233Z,36.60
2023-06-09T12:41:57.364Z,37.10
2023-06-09T12:44:25.965Z,36.40
2023-06-09T12:46:56.894Z,36.70
2023-06-09T12:49:31.663Z,36.70
2023-06-09T12:52:03.144Z,36.80
2023-06-09T12:54:29.979Z,37.30
2023-06-09T12:56:57.487Z,36.80
2023-06-09T12:59:25.124Z,36.30
2023-06-09T13:01:53.839Z,36.40
2023-06-09T13:04:21.411Z,35.80
2023-06-09T13:06:48.871Z,35.50
2023-06-09T13:09:15.825Z,35.10
2023-06-09T13:11:42.864Z,35.40
2023-06-09T13:14:09.739Z,35.60
2023-06-09T13:16:36.661Z,35.60
2023-06-09T13:19:03.438Z,35.90
2023-06-09T13:21:42.879Z,36.40
2023-06-09T13:24:11.079Z,37.10
2023-06-09T13:26:37.867Z,36.20
2023-06-09T13:29:04.768Z,36.50
2023-06-09T13:31:31.710Z,34.90
2023-06-09T13:33:58.592Z,34.60
2023-06-09T13:36:25.425Z,34.70
2023-06-09T13:38:52.368Z,34.10
2023-06-09T13:41:19.386Z,33.70
2023-06-09T13:43:46.296Z,33.50
2023-06-09T13:46:13.118Z,33.70
2023-06-09T13:48:40.620Z,33.60
2023-06-09T13:51:07.635Z,33.90
2023-06-09T13:53:34.477Z,33.70
2023-06-09T13:56:01.383Z,32.70
2023-06-09T13:58:28.448Z,32.30
2023-06-09T14:00:56.723Z,32.00
2023-06-09T14:03:24.507Z,32.20
2023-06-09T14:05:51.430Z,32.20
2023-06-09T14:08:18.294Z,32.10
2023-06-09T14:10:45.859Z,32.20
2023-06-09T14:13:12.755Z,32.20
2023-06-09T14:15:39.523Z,32.10
2023-06-09T14:18:07.047Z,32.10
2023-06-09T14:20:34.010Z,32.50
2023-06-09T14:23:03.995Z,32.60
2023-06-09T14:25:30.874Z,32.50
2023-06-09T14:27:58.048Z,32.70
2023-06-09T14:30:26.513Z,32.90
2023-06-09T14:32:53.499Z,32.90
2023-06-09T14:35:24.796Z,33.00
2023-06-09T14:37:55.547Z,33.50
2023-06-09T14:40:24.365Z,34.70
2023-06-09T14:42:51.892Z,33.00
2023-06-09T14:45:23.614Z,32.90
2023-06-09T14:48:02.241Z,32.50
2023-06-09T14:50:35.426Z,33.20
2023-06-09T14:53:03.721Z,33.60
2023-06-09T14:55:32.872Z,33.40
2023-06-09T14:58:02.182Z,33.50
2023-06-09T15:00:31.852Z,33.60
2023-06-09T15:02:59.688Z,33.30
2023-06-09T15:05:29.546Z,33.00
2023-06-09T15:07:58.305Z,33.80
2023-06-09T15:10:30.152Z,34.20
2023-06-09T15:12:57.439Z,34.30
2023-06-09T15:15:28.618Z,33.90
2023-06-09T15:17:56.998Z,33.60
2023-06-09T15:20:28.814Z,33.70
2023-06-09T15:22:58.380Z,33.80
2023-06-09T15:25:30.125Z,33.70
2023-06-09T15:28:01.632Z,33.90
2023-06-09T15:30:32.945Z,34.10
2023-06-09T15:33:08.504Z,34.00
2023-06-09T15:35:37.470Z,33.80
2023-06-09T15:38:06.051Z,33.30
2023-06-09T15:40:37.136Z,33.30
2023-06-09T15:43:04.118Z,33.30
2023-06-09T15:45:57.457Z,33.30
2023-06-09T15:48:24.925Z,33.80
2023-06-09T15:50:52.332Z,34.10
2023-06-09T15:53:21.551Z,34.10
2023-06-09T15:55:49.801Z,34.00
2023-06-09T15:58:16.661Z,34.00
2023-06-09T16:00:44.209Z,34.20
2023-06-09T16:03:11.138Z,34.30
2023-06-09T16:05:42.439Z,34.30
2023-06-09T16:08:12.049Z,34.00
2023-06-09T16:10:40.776Z,33.70
2023-06-09T16:13:08.105Z,33.70
2023-06-09T16:15:35.995Z,33.80
2023-06-09T16:18:05.067Z,33.40
2023-06-09T16:20:34.357Z,33.20
2023-06-09T16:23:02.577Z,33.30
2023-06-09T16:25:30.792Z,33.30
2023-06-09T16:27:58.189Z,33.50
2023-06-09T16:30:25.412Z,33.90
2023-06-09T16:32:52.303Z,34.30
2023-06-09T16:35:19.759Z,34.40
2023-06-09T16:37:46.477Z,34.20
2023-06-09T16:40:13.387Z,34.20
2023-06-09T16:42:40.250Z,34.40
2023-06-09T16:45:07.862Z,34.60
2023-06-09T16:47:34.952Z,34.30
2023-06-09T16:50:01.796Z,34.40
2023-06-09T16:52:28.701Z,35.70
2023-06-09T16:54:55.620Z,35.80
2023-06-09T16:57:23.309Z,34.40
2023-06-09T16:59:50.154Z,34.50
2023-06-09T17:02:17.111Z,34.70
2023-06-09T17:04:43.941Z,34.50
2023-06-09T17:07:10.784Z,34.80
2023-06-09T17:09:37.707Z,34.80
2023-06-09T17:12:04.926Z,34.80
2023-06-09T17:14:31.763Z,34.70
2023-06-09T17:16:58.742Z,34.60
2023-06-09T17:19:26.701Z,34.70
2023-06-09T17:21:53.586Z,34.90
2023-06-09T17:24:20.557Z,35.00
2023-06-09T17:26:48.141Z,35.10
2023-06-09T17:29:15.182Z,36.10
2023-06-09T17:31:41.948Z,36.00
2023-06-09T17:34:09.503Z,35.20
2023-06-09T17:36:36.391Z,35.00
2023-06-09T17:39:03.905Z,34.70
2023-06-09T17:41:30.982Z,34.70
2023-06-09T17:44:02.122Z,34.90
2023-06-09T17:46:30.272Z,34.90
2023-06-09T17:48:57.159Z,34.60
2023-06-09T17:51:24.085Z,34.80
2023-06-09T17:53:53.954Z,35.00
2023-06-09T17:56:21.229Z,34.70
2023-06-09T17:58:48.141Z,34.70
2023-06-09T18:01:14.965Z,34.50
2023-06-09T18:03:41.746Z,34.20
2023-06-09T18:06:09.006Z,34.10
2023-06-09T18:08:35.921Z,34.30
2023-06-09T18:11:05.339Z,34.40
2023-06-09T18:13:33.194Z,34.30
2023-06-09T18:16:00.364Z,34.50
2023-06-09T18:18:27.177Z,34.30
2023-06-09T18:20:54.068Z,34.40
2023-06-09T18:23:20.885Z,34.20
2023-06-09T18:25:48.094Z,34.10
2023-06-09T18:28:16.566Z,34.00
2023-06-09T18:30:46.095Z,35.30
2023-06-09T18:33:12.868Z,34.20
2023-06-09T18:35:39.716Z,34.50
2023-06-09T18:38:06.677Z,34.40
2023-06-09T18:40:33.456Z,34.20
2023-06-09T18:43:00.294Z,34.20
2023-06-09T18:45:27.120Z,34.20
2023-06-09T18:47:55.183Z,34.50
2023-06-09T18:50:22.208Z,34.80
2023-06-09T18:52:49.695Z,35.00
2023-06-09T18:55:16.538Z,35.20
2023-06-09T18:57:43.341Z,35.30
2023-06-09T19:00:11.191Z,35.60
2023-06-09T19:02:38.267Z,35.80
2023-06-09T19:05:05.541Z,36.10
2023-06-09T19:07:32.325Z,36.40
2023-06-09T19:10:01.366Z,36.50
2023-06-09T19:12:28.574Z,37.60
2023-06-09T19:14:55.427Z,37.80
2023-06-09T19:17:22.319Z,36.90
2023-06-09T19:19:49.258Z,37.10
2023-06-09T19:22:16.219Z,37.30
2023-06-09T19:24:45.098Z,37.50
2023-06-09T19:27:12.507Z,37.80
2023-06-09T19:29:39.370Z,37.90
2023-06-09T19:32:07.363Z,38.10
2023-06-09T19:34:34.625Z,38.30
2023-06-09T19:37:03.593Z,38.40
2023-06-09T19:39:31.368Z,38.70
2023-06-09T19:41:58.117Z,38.80
2023-06-09T19:44:24.953Z,39.20
2023-06-09T19:46:51.831Z,39.40
2023-06-09T19:49:19.403Z,39.50
2023-06-09T19:51:46.584Z,39.70
2023-06-09T19:54:13.374Z,40.00
2023-06-09T19:56:47.843Z,40.10
2023-06-09T19:59:16.228Z,40.20
2023-06-09T20:01:44.415Z,40.40
2023-06-09T20:04:11.536Z,40.50
2023-06-09T20:06:39.900Z,40.80
2023-06-09T20:09:06.732Z,41.00
2023-06-09T20:11:33.664Z,41.10
2023-06-09T20:14:00.521Z,41.30
2023-06-09T20:16:27.406Z,41.40
2023-06-09T20:18:54.386Z,41.50
2023-06-09T20:21:24.174Z,42.80
2023-06-09T20:23:50.895Z,41.80
2023-06-09T20:26:19.160Z,41.80
2023-06-09T20:28:46.981Z,42.10
2023-06-09T20:31:13.960Z,42.20
2023-06-09T20:33:42.593Z,42.40
2023-06-09T20:36:09.966Z,42.40
2023-06-09T20:38:36.970Z,42.60
2023-06-09T20:41:04.990Z,42.60
2023-06-09T20:43:31.793Z,42.80
2023-06-09T20:46:02.076Z,42.90
2023-06-09T20:48:30.201Z,43.10
2023-06-09T20:50:57.384Z,43.10
2023-06-09T20:53:24.414Z,43.20
2023-06-09T20:55:52.222Z,43.40
2023-06-09T20:58:19.497Z,43.40
2023-06-09T21:00:50.206Z,43.50
2023-06-09T21:03:18.237Z,43.70
2023-06-09T21:05:45.705Z,43.80
2023-06-09T21:08:12.714Z,43.90
2023-06-09T21:10:41.087Z,44.00
2023-06-09T21:13:07.989Z,44.10
2023-06-09T21:15:35.693Z,44.30
2023-06-09T21:18:03.181Z,44.40
2023-06-09T21:20:33.981Z,44.50
2023-06-09T21:23:01.928Z,44.60
2023-06-09T21:25:32.841Z,44.70
2023-06-09T21:28:04.961Z,44.60
2023-06-09T21:30:32.925Z,44.80
2023-06-09T21:33:00.497Z,45.00
2023-06-09T21:35:27.333Z,45.10
2023-06-09T21:37:54.644Z,45.10
2023-06-09T21:40:21.551Z,45.20
2023-06-09T21:42:48.339Z,45.20
2023-06-09T21:45:15.253Z,45.30
2023-06-09T21:47:42.245Z,45.50
2023-06-09T21:50:09.748Z,45.50
2023-06-09T21:52:36.811Z,46.60
2023-06-09T21:55:05.449Z,45.60
2023-06-09T21:57:32.607Z,45.80
2023-06-09T21:59:59.738Z,45.90
2023-06-09T22:02:27.374Z,46.00
2023-06-09T22:04:54.557Z,46.00
2023-06-09T22:07:22.017Z,47.10
2023-06-09T22:09:48.774Z,46.20
2023-06-09T22:12:18.692Z,46.30
2023-06-09T22:14:45.531Z,46.50
2023-06-09T22:17:12.658Z,46.50
2023-06-09T22:19:39.673Z,46.60
2023-06-09T22:22:07.685Z,46.70
2023-06-09T22:24:34.907Z,46.90
2023-06-09T22:27:02.660Z,46.90
2023-06-09T22:29:29.753Z,47.10
2023-06-09T22:31:56.812Z,47.10
2023-06-09T22:34:23.698Z,47.10
2023-06-09T22:36:50.628Z,47.30
2023-06-09T22:39:17.499Z,47.30
2023-06-09T22:41:44.389Z,47.50
2023-06-09T22:44:11.453Z,47.60
2023-06-09T22:46:38.352Z,47.60
2023-06-09T22:49:06.484Z,47.80
2023-06-09T22:51:33.234Z,47.80
2023-06-09T22:54:00.378Z,48.00
2023-06-09T22:56:27.565Z,48.10
2023-06-09T22:58:54.527Z,48.20
2023-06-09T23:01:21.665Z,48.20
2023-06-09T23:03:52.263Z,48.30
2023-06-09T23:06:20.702Z,48.40
2023-06-09T23:08:47.577Z,48.50
2023-06-09T23:11:15.082Z,48.50
2023-06-09T23:13:42.536Z,48.60
2023-06-09T23:16:09.914Z,48.70
2023-06-09T23:18:37.113Z,48.70
2023-06-09T23:21:05.246Z,48.80
2023-06-09T23:23:34.112Z,48.80
2023-06-09T23:26:02.609Z,48.80
2023-06-09T23:28:30.131Z,48.90
2023-06-09T23:30:57.347Z,49.00
2023-06-09T23:33:26.328Z,49.00
2023-06-09T23:35:54.447Z,49.10
2023-06-09T23:38:21.599Z,49.20
2023-06-09T23:40:48.535Z,49.20
2023-06-09T23:43:15.391Z,49.20
2023-06-09T23:45:42.278Z,49.30
2023-06-09T23:48:09.444Z,49.30
2023-06-09T23:50:36.424Z,50.30
2023-06-09T23:53:08.850Z,49.40
2023-06-09T23:55:37.477Z,49.60
2023-06-09T23:58:04.279Z,49.50
